createdAt,value
2022-12-12T00:03:48.057Z,94.81
2022-12-12T00:08:47.756Z,95.02
2022-12-12T00:13:47.833Z,94.92
2022-12-12T00:18:47.728Z,93.97
2022-12-12T00:23:47.601Z,94.24
2022-12-12T00:28:47.520Z,94.45
2022-12-12T00:33:47.374Z,93.72
2022-12-12T00:38:47.411Z,94.29
2022-12-12T00:43:47.264Z,94.39
2022-12-12T00:48:47.220Z,94.92
2022-12-12T00:53:47.119Z,95.13
2022-12-12T00:58:47.127Z,95.34
2022-12-12T01:03:47.114Z,95.23
2022-12-12T01:08:46.990Z,95.65
2022-12-12T01:13:46.930Z,95.38
2022-12-12T01:18:46.837Z,96.12
2022-12-12T01:23:46.732Z,96.12
2022-12-12T01:28:47.108Z,95.97
2022-12-12T01:33:46.715Z,94.85
2022-12-12T01:38:46.560Z,95.86
2022-12-12T01:43:49.596Z,95.34
2022-12-12T01:48:46.480Z,94.49
2022-12-12T01:53:46.669Z,93.97
2022-12-12T01:58:46.433Z,93.62
2022-12-12T02:03:46.277Z,92.67
2022-12-12T02:08:46.187Z,92.92
2022-12-12T02:13:46.233Z,93.62
2022-12-12T02:18:46.085Z,93.51
2022-12-12T02:23:46.007Z,94.24
2022-12-12T02:28:46.001Z,94.04
2022-12-12T02:33:45.866Z,94.29
2022-12-12T02:38:45.820Z,95.02
2022-12-12T02:43:45.733Z,95.40
2022-12-12T02:48:45.732Z,95.19
2022-12-12T02:53:45.631Z,95.72
2022-12-12T02:58:45.624Z,95.19
2022-12-12T03:03:45.553Z,95.78
2022-12-12T03:08:45.393Z,95.67
2022-12-12T03:13:45.380Z,95.46
2022-12-12T03:18:45.376Z,95.78
2022-12-12T03:23:45.214Z,95.78
2022-12-12T03:28:45.218Z,95.19
2022-12-12T03:33:45.109Z,95.46
2022-12-12T03:38:45.031Z,95.56
2022-12-12T03:43:44.940Z,95.50
2022-12-12T03:48:44.926Z,95.29
2022-12-12T03:53:44.884Z,95.56
2022-12-12T03:58:44.782Z,95.36
2022-12-12T04:03:44.700Z,95.15
2022-12-12T04:08:44.641Z,94.93
2022-12-12T04:13:44.568Z,95.46
2022-12-12T04:18:44.525Z,95.29
2022-12-12T04:23:44.487Z,96.03
2022-12-12T04:28:44.442Z,96.19
2022-12-12T04:33:44.324Z,96.13
2022-12-12T04:38:44.277Z,96.34
2022-12-12T04:43:44.221Z,96.87
2022-12-12T04:48:44.373Z,97.18
2022-12-12T04:53:44.083Z,97.71
2022-12-12T04:58:44.048Z,97.54
2022-12-12T05:03:43.923Z,98.44
2022-12-12T05:08:43.927Z,98.55
2022-12-12T05:13:43.841Z,98.75
2022-12-12T05:18:43.740Z,98.55
2022-12-12T05:23:43.696Z,98.55
2022-12-12T05:28:43.653Z,97.92
2022-12-12T05:33:43.555Z,98.39
2022-12-12T05:38:43.519Z,97.92
2022-12-12T05:43:43.481Z,98.13
2022-12-12T05:48:43.385Z,98.44
2022-12-12T05:53:43.413Z,98.39
2022-12-12T05:58:43.246Z,98.50
2022-12-12T06:03:43.257Z,98.71
2022-12-12T06:08:43.198Z,98.56
2022-12-12T06:13:43.050Z,97.83
2022-12-12T06:18:42.961Z,97.93
2022-12-12T06:23:42.907Z,98.31
2022-12-12T06:28:42.886Z,96.51
2022-12-12T06:33:42.797Z,97.09
2022-12-12T06:38:42.782Z,97.20
2022-12-12T06:43:42.701Z,96.51
2022-12-12T06:48:42.658Z,96.72
2022-12-12T06:53:42.597Z,97.62
2022-12-12T06:58:42.513Z,97.09
2022-12-12T07:03:42.381Z,96.36
2022-12-12T07:08:42.376Z,95.94
2022-12-12T07:13:42.397Z,96.15
2022-12-12T07:18:42.200Z,96.15
2022-12-12T07:23:42.326Z,96.57
2022-12-12T07:28:42.186Z,97.05
2022-12-12T07:33:44.531Z,96.69
2022-12-12T07:38:42.021Z,95.01
2022-12-12T07:43:44.348Z,94.43
2022-12-12T07:48:41.905Z,94.01
2022-12-12T07:53:41.759Z,93.70
2022-12-12T07:58:41.727Z,94.18
2022-12-12T08:03:41.632Z,93.51
2022-12-12T08:08:41.600Z,92.63
2022-12-12T08:13:41.571Z,91.37
2022-12-12T08:18:41.537Z,89.70
2022-12-12T08:23:41.386Z,89.22
2022-12-12T08:28:41.400Z,89.36
2022-12-12T08:33:41.303Z,90.41
2022-12-12T08:38:41.245Z,91.20
2022-12-12T08:43:41.154Z,89.84
2022-12-12T08:48:41.082Z,90.30
2022-12-12T08:53:41.012Z,91.24
2022-12-12T08:58:40.957Z,91.83
2022-12-12T09:03:40.834Z,91.52
2022-12-12T09:08:40.826Z,91.72
2022-12-12T09:13:40.723Z,90.49
2022-12-12T09:18:46.358Z,89.40
2022-12-12T09:23:41.625Z,88.36
2022-12-12T09:28:40.559Z,87.27
2022-12-12T09:33:41.373Z,86.51
2022-12-12T09:38:40.509Z,86.57
2022-12-12T09:43:40.466Z,84.89
2022-12-12T09:48:40.724Z,84.89
2022-12-12T09:53:40.258Z,86.15
2022-12-12T09:58:46.722Z,85.25
2022-12-12T10:03:41.477Z,86.61
2022-12-12T10:08:40.006Z,86.57
2022-12-12T10:13:39.919Z,85.46
2022-12-12T10:18:39.897Z,86.13
2022-12-12T10:23:39.840Z,86.54
2022-12-12T10:28:39.804Z,86.85
2022-12-12T10:33:39.834Z,86.71
2022-12-12T10:38:39.637Z,86.02
2022-12-12T10:43:39.649Z,86.96
2022-12-12T10:48:39.617Z,87.90
2022-12-12T10:53:39.497Z,87.17
2022-12-12T10:58:39.414Z,86.65
2022-12-12T11:03:39.381Z,87.17
2022-12-12T11:08:39.420Z,86.82
2022-12-12T11:13:39.184Z,86.92
2022-12-12T11:18:39.093Z,87.02
2022-12-12T11:23:39.012Z,87.23
2022-12-12T11:28:39.053Z,88.17
2022-12-12T11:33:38.952Z,87.96
2022-12-12T11:38:38.865Z,89.05
2022-12-12T11:43:38.824Z,88.84
2022-12-12T11:48:38.776Z,89.05
2022-12-12T11:53:38.684Z,89.84
2022-12-12T11:58:38.615Z,89.15
2022-12-12T12:03:38.554Z,90.62
2022-12-12T12:08:38.493Z,90.62
2022-12-12T12:13:38.396Z,90.72
2022-12-12T12:18:38.375Z,91.35
2022-12-12T12:23:42.580Z,90.83
2022-12-12T12:28:39.224Z,91.00
2022-12-12T12:33:38.145Z,90.22
2022-12-12T12:38:38.335Z,88.45
2022-12-12T12:43:38.053Z,90.01
2022-12-12T12:48:37.962Z,90.39
2022-12-12T12:53:37.916Z,90.03
2022-12-12T12:58:37.841Z,89.83
2022-12-12T13:03:37.798Z,89.10
2022-12-12T13:08:37.808Z,89.34
2022-12-12T13:13:37.839Z,90.33
2022-12-12T13:18:45.719Z,90.53
2022-12-12T13:23:38.521Z,91.41
2022-12-12T13:28:37.504Z,91.87
2022-12-12T13:33:37.341Z,92.08
2022-12-12T13:38:37.277Z,92.60
2022-12-12T13:43:37.195Z,92.60
2022-12-12T13:48:41.438Z,91.28
2022-12-12T13:53:38.071Z,90.93
2022-12-12T13:58:37.083Z,89.99
2022-12-12T14:03:36.963Z,89.83
2022-12-12T14:08:36.928Z,89.51
2022-12-12T14:13:36.892Z,88.36
2022-12-12T14:18:36.764Z,89.72
2022-12-12T14:23:36.779Z,89.30
2022-12-12T14:28:36.667Z,88.26
2022-12-12T14:33:36.599Z,86.52
2022-12-12T14:38:36.545Z,87.46
2022-12-12T14:43:36.450Z,87.18
2022-12-12T14:48:36.404Z,87.54
2022-12-12T14:53:36.317Z,88.96
2022-12-12T14:58:36.290Z,87.64
2022-12-12T15:03:36.272Z,88.94
2022-12-12T15:08:36.155Z,89.15
2022-12-12T15:13:36.213Z,88.87
2022-12-12T15:18:36.108Z,89.97
2022-12-12T15:23:35.917Z,89.90
2022-12-12T15:28:35.874Z,90.78
2022-12-12T15:33:35.813Z,91.30
2022-12-12T15:38:35.789Z,91.77
2022-12-12T15:43:35.650Z,92.35
2022-12-12T15:48:35.589Z,91.94
2022-12-12T15:53:35.534Z,91.09
2022-12-12T15:58:35.523Z,90.57
2022-12-12T16:03:35.439Z,91.41
2022-12-12T16:08:35.422Z,91.20
2022-12-12T16:13:35.295Z,90.67
2022-12-12T16:18:35.210Z,90.89
2022-12-12T16:23:35.222Z,89.73
2022-12-12T16:28:35.084Z,90.25
2022-12-12T16:33:35.078Z,90.11
2022-12-12T16:38:34.959Z,89.37
2022-12-12T16:43:34.962Z,88.54
2022-12-12T16:48:34.829Z,88.75
2022-12-12T16:53:35.895Z,89.44
2022-12-12T16:58:34.780Z,89.23
2022-12-12T17:03:34.801Z,88.07
2022-12-12T17:08:34.623Z,87.87
2022-12-12T17:13:34.504Z,88.07
2022-12-12T17:18:34.507Z,89.23
2022-12-12T17:23:34.372Z,87.34
2022-12-12T17:28:34.354Z,87.66
2022-12-12T17:33:34.277Z,88.18
2022-12-12T17:38:34.200Z,88.07
2022-12-12T17:43:34.166Z,88.07
2022-12-12T17:48:34.124Z,87.87
2022-12-12T17:53:34.082Z,87.03
2022-12-12T17:58:33.931Z,89.61
2022-12-12T18:03:33.906Z,93.36
2022-12-12T18:08:33.867Z,86.87
2022-12-12T18:13:33.748Z,85.97
2022-12-12T18:18:33.751Z,88.27
2022-12-12T18:23:33.610Z,86.70
2022-12-12T18:28:33.629Z,86.80
2022-12-12T18:33:33.497Z,90.05
2022-12-12T18:38:33.491Z,85.86
2022-12-12T18:43:33.414Z,88.48
2022-12-12T18:48:33.304Z,85.86
2022-12-12T18:53:33.263Z,84.54
2022-12-12T18:58:33.161Z,86.36
2022-12-12T19:03:33.145Z,85.21
2022-12-12T19:08:33.106Z,87.47
2022-12-12T19:13:34.090Z,86.22
2022-12-12T19:18:32.921Z,85.21
2022-12-12T19:23:32.837Z,85.66
2022-12-12T19:28:32.830Z,85.77
2022-12-12T19:33:32.799Z,86.29
2022-12-12T19:38:32.657Z,86.08
2022-12-12T19:43:32.663Z,85.56
2022-12-12T19:48:32.553Z,85.77
2022-12-12T19:53:32.517Z,85.88
2022-12-12T19:58:35.139Z,85.98
2022-12-12T20:03:33.419Z,86.71
2022-12-12T20:08:32.311Z,86.51
2022-12-12T20:13:32.235Z,86.40
2022-12-12T20:18:32.371Z,86.82
2022-12-12T20:23:32.093Z,87.66
2022-12-12T20:28:32.049Z,86.61
2022-12-12T20:33:31.988Z,86.19
2022-12-12T20:38:31.898Z,85.60
2022-12-12T20:43:31.854Z,86.76
2022-12-12T20:48:31.758Z,86.65
2022-12-12T20:53:36.304Z,87.28
2022-12-12T20:58:31.688Z,87.34
2022-12-12T21:03:31.652Z,86.61
2022-12-12T21:08:31.634Z,86.61
2022-12-12T21:13:31.434Z,85.77
2022-12-12T21:18:31.450Z,85.25
2022-12-12T21:23:31.455Z,86.19
2022-12-12T21:28:31.252Z,86.92
2022-12-12T21:33:31.250Z,87.97
2022-12-12T21:38:31.183Z,86.19
2022-12-12T21:43:31.068Z,85.66
2022-12-12T21:48:31.004Z,85.66
2022-12-12T21:53:30.981Z,85.98
2022-12-12T21:58:30.880Z,86.61
2022-12-12T22:03:30.934Z,86.19
2022-12-12T22:08:30.817Z,86.19
2022-12-12T22:13:33.154Z,85.77
2022-12-12T22:18:31.630Z,86.08
2022-12-12T22:23:30.568Z,86.51
2022-12-12T22:28:30.568Z,86.02
2022-12-12T22:33:30.509Z,86.33
2022-12-12T22:38:32.260Z,86.71
2022-12-12T22:43:31.360Z,86.29
2022-12-12T22:48:30.257Z,86.29
2022-12-12T22:53:30.163Z,86.19
2022-12-12T22:58:30.178Z,85.88
2022-12-12T23:03:30.040Z,85.98
2022-12-12T23:08:30.057Z,85.56
2022-12-12T23:13:30.009Z,85.46
2022-12-12T23:18:29.890Z,85.25
2022-12-12T23:23:29.827Z,85.25
2022-12-12T23:28:29.858Z,85.46
2022-12-12T23:33:29.647Z,84.62
2022-12-12T23:38:29.760Z,84.62
2022-12-12T23:43:29.566Z,84.09
2022-12-12T23:48:29.446Z,83.88
2022-12-12T23:53:29.500Z,84.20
2022-12-12T23:58:29.408Z,83.78
